Time;durP1;ratioP1;P1;durP2;ratioP2;P2;SDS_P1;SDS_P2;PMS_P1;PMS_P2;Temp;Humidity;BMP_temperature;BMP_pressure;BME280_temperature;BME280_humidity;BME280_pressure;Samples;Min_cycle;Max_cycle;Signal;HPM_P1;HPM_P2
2022/04/24 00:01:24;;;;;;;5.80;5.30;;;20.90;57.80;;;;;;4975480;28;20047;-15
2022/04/24 00:03:50;;;;;;;7.10;5.72;;;21.00;57.80;;;;;;4975525;28;20050;-14
2022/04/24 00:06:15;;;;;;;5.85;5.35;;;20.90;57.70;;;;;;4977737;28;20050;-14
2022/04/24 00:08:41;;;;;;;5.40;4.90;;;20.90;57.70;;;;;;4975189;28;20500;-14
2022/04/24 00:11:06;;;;;;;5.25;4.85;;;20.90;57.80;;;;;;4977376;28;20121;-14
2022/04/24 00:13:37;;;;;;;5.90;5.28;;;20.90;57.90;;;;;;4975569;28;20403;-15
2022/04/24 00:16:04;;;;;;;6.07;5.53;;;20.90;57.90;;;;;;4975694;28;20042;-15
2022/04/24 00:18:30;;;;;;;6.00;5.40;;;20.90;57.90;;;;;;4976628;28;20448;-15
2022/04/24 00:20:56;;;;;;;6.35;5.75;;;20.90;58.00;;;;;;4977078;28;20046;-15
2022/04/24 00:23:21;;;;;;;5.82;5.43;;;20.90;57.80;;;;;;4976884;28;20057;-15
2022/04/24 00:25:47;;;;;;;5.95;5.43;;;20.90;57.90;;;;;;4976128;28;22139;-15
2022/04/24 00:28:13;;;;;;;5.85;5.30;;;20.90;57.70;;;;;;4977166;28;20046;-15
2022/04/24 00:30:38;;;;;;;5.40;5.10;;;20.90;57.80;;;;;;4975849;28;20038;-15
2022/04/24 00:33:04;;;;;;;5.60;5.10;;;20.90;57.70;;;;;;4975444;28;20062;-15
2022/04/24 00:35:31;;;;;;;5.72;5.07;;;20.90;57.90;;;;;;4968497;28;20067;-16
2022/04/24 00:37:57;;;;;;;5.55;5.07;;;20.90;57.70;;;;;;4957556;28;20141;-15
2022/04/24 00:40:23;;;;;;;6.78;5.45;;;20.90;57.90;;;;;;4957449;28;20071;-14
2022/04/24 00:42:49;;;;;;;5.97;5.38;;;20.90;58.00;;;;;;4956986;28;20098;-15
2022/04/24 00:45:15;;;;;;;5.47;4.93;;;20.90;57.90;;;;;;4988733;28;20123;-14
2022/04/24 00:47:41;;;;;;;5.50;5.00;;;20.90;57.90;;;;;;4957053;28;20070;-14
2022/04/24 00:50:07;;;;;;;4.68;4.38;;;20.90;57.80;;;;;;4988784;28;20047;-15
2022/04/24 00:52:33;;;;;;;5.28;4.80;;;20.90;57.90;;;;;;4956701;28;20049;-15
2022/04/24 00:54:59;;;;;;;5.05;4.57;;;20.90;57.80;;;;;;4966456;28;20049;-14
2022/04/24 00:57:25;;;;;;;6.22;5.65;;;20.90;57.80;;;;;;4975971;28;20058;-15
2022/04/24 00:59:51;;;;;;;5.72;5.15;;;20.80;57.80;;;;;;4994105;28;20051;-15
2022/04/24 01:02:16;;;;;;;5.30;4.80;;;20.90;57.90;;;;;;4956741;28;20555;-15
2022/04/24 01:04:42;;;;;;;5.72;5.22;;;20.80;57.80;;;;;;4955871;28;20042;-15
2022/04/24 01:07:08;;;;;;;5.20;4.80;;;20.80;57.90;;;;;;4964588;28;20062;-16
2022/04/24 01:09:35;;;;;;;4.68;4.38;;;20.80;57.80;;;;;;4975772;28;20174;-15
2022/04/24 01:12:00;;;;;;;5.32;4.90;;;20.80;57.80;;;;;;4975803;28;20055;-14
2022/04/24 01:14:27;;;;;;;5.40;5.00;;;20.80;57.90;;;;;;4975357;28;20550;-15
2022/04/24 01:16:52;;;;;;;5.65;5.25;;;20.80;57.90;;;;;;4969898;28;20050;-14
2022/04/24 01:19:18;;;;;;;5.82;5.32;;;20.80;57.80;;;;;;4975701;28;20093;-15
2022/04/24 01:21:47;;;;;;;5.70;5.30;;;20.80;57.80;;;;;;4974740;28;20045;-15
2022/04/24 01:24:15;;;;;;;6.20;5.60;;;20.80;57.80;;;;;;4967988;28;20083;-14
2022/04/24 01:26:41;;;;;;;5.47;5.10;;;20.80;57.80;;;;;;4956150;28;20564;-15
2022/04/24 01:29:06;;;;;;;6.20;5.63;;;20.80;57.80;;;;;;4968765;28;20528;-15
2022/04/24 01:31:32;;;;;;;5.70;5.30;;;20.80;57.80;;;;;;4975931;28;20129;-15
2022/04/24 01:33:58;;;;;;;5.80;5.18;;;20.80;57.70;;;;;;4975401;28;20411;-15
2022/04/24 01:36:24;;;;;;;5.78;5.28;;;20.80;57.70;;;;;;4976129;28;20518;-15
2022/04/24 01:38:49;;;;;;;5.40;5.00;;;20.80;57.80;;;;;;4968534;28;20047;-14
2022/04/24 01:41:15;;;;;;;5.38;4.88;;;20.80;57.80;;;;;;4957177;28;20129;-14
2022/04/24 01:43:41;;;;;;;5.57;5.18;;;20.80;57.80;;;;;;4956559;28;20452;-14
2022/04/24 01:46:08;;;;;;;5.00;4.60;;;20.80;57.70;;;;;;4957337;28;20484;-15
2022/04/24 01:48:33;;;;;;;5.30;4.82;;;20.80;57.70;;;;;;4960429;28;20508;-15
2022/04/24 01:51:02;;;;;;;5.20;4.85;;;20.80;57.80;;;;;;4957203;28;20482;-15
2022/04/24 01:53:31;;;;;;;5.70;5.25;;;20.70;57.80;;;;;;4956909;28;20497;-15
2022/04/24 01:56:01;;;;;;;5.00;4.65;;;20.80;57.80;;;;;;4972900;28;20137;-15
2022/04/24 01:58:26;;;;;;;5.45;5.00;;;20.70;57.70;;;;;;4976365;28;20049;-15
2022/04/24 02:00:53;;;;;;;5.75;5.28;;;20.70;57.70;;;;;;4975860;28;20043;-15
2022/04/24 02:03:19;;;;;;;4.97;4.60;;;20.70;57.80;;;;;;4973550;28;20146;-15
2022/04/24 02:05:45;;;;;;;5.68;5.28;;;20.70;57.90;;;;;;4975704;28;20054;-14
2022/04/24 02:08:11;;;;;;;5.70;4.82;;;20.70;57.90;;;;;;4967800;28;20070;-14
2022/04/24 02:10:36;;;;;;;5.00;4.60;;;20.70;57.70;;;;;;4956413;28;20567;-17
2022/04/24 02:13:02;;;;;;;5.40;5.00;;;20.80;58.40;;;;;;4957131;28;20039;-14
2022/04/24 02:15:28;;;;;;;5.90;5.38;;;20.70;57.80;;;;;;4976958;28;20087;-15
2022/04/24 02:17:55;;;;;;;5.05;4.55;;;20.70;57.80;;;;;;4978772;28;20047;-15
2022/04/24 02:20:20;;;;;;;5.05;4.60;;;20.70;57.80;;;;;;4980112;28;20042;-15
2022/04/24 02:22:46;;;;;;;5.03;4.63;;;20.70;57.70;;;;;;4960193;28;20047;-14
2022/04/24 02:25:12;;;;;;;4.53;4.20;;;20.70;57.70;;;;;;4960502;28;20039;-15
2022/04/24 02:27:37;;;;;;;5.18;4.78;;;20.70;57.80;;;;;;4959969;28;20397;-15
2022/04/24 02:30:03;;;;;;;4.57;4.28;;;20.70;57.70;;;;;;4975946;28;20109;-15
2022/04/24 02:32:29;;;;;;;4.57;4.18;;;20.70;57.70;;;;;;4960406;28;20050;-14
2022/04/24 02:34:54;;;;;;;5.28;4.88;;;20.70;57.70;;;;;;4958550;28;20106;-14
2022/04/24 02:37:22;;;;;;;5.15;4.72;;;20.70;57.80;;;;;;4970040;28;20456;-15
2022/04/24 02:39:47;;;;;;;5.13;4.75;;;20.70;57.70;;;;;;4977548;28;20051;-15
2022/04/24 02:42:13;;;;;;;5.05;4.70;;;20.70;57.60;;;;;;4959016;28;20041;-15
2022/04/24 02:44:39;;;;;;;4.35;4.05;;;20.70;57.80;;;;;;4970062;28;20059;-14
2022/04/24 02:47:05;;;;;;;5.05;4.65;;;20.60;57.70;;;;;;4960274;28;20681;-14
2022/04/24 02:49:30;;;;;;;4.88;4.50;;;20.70;57.60;;;;;;4991143;28;20501;-14
2022/04/24 02:51:56;;;;;;;5.10;4.70;;;20.70;57.60;;;;;;4959551;28;20051;-15
2022/04/24 02:54:21;;;;;;;4.25;3.95;;;20.70;57.60;;;;;;4964288;28;20512;-14
2022/04/24 02:56:47;;;;;;;4.88;4.50;;;20.70;57.60;;;;;;4978738;28;20097;-14
2022/04/24 02:59:15;;;;;;;4.70;4.30;;;20.70;57.70;;;;;;4978863;28;20051;-16
2022/04/24 03:01:41;;;;;;;4.40;4.10;;;20.70;57.70;;;;;;4978409;28;20046;-14
2022/04/24 03:04:06;;;;;;;4.80;4.47;;;20.60;57.70;;;;;;4978972;28;20054;-16
2022/04/24 03:06:32;;;;;;;5.15;4.75;;;20.60;57.70;;;;;;4970591;28;20080;-15
2022/04/24 03:08:57;;;;;;;4.40;4.07;;;20.60;57.90;;;;;;4968104;28;20105;-14
2022/04/24 03:11:23;;;;;;;4.38;4.07;;;20.60;57.80;;;;;;4979035;28;20043;-16
2022/04/24 03:13:48;;;;;;;4.90;4.35;;;20.60;57.70;;;;;;4978432;28;20434;-15
2022/04/24 03:16:14;;;;;;;4.40;4.10;;;20.60;57.80;;;;;;4977678;28;20115;-14
2022/04/24 03:18:40;;;;;;;4.78;4.38;;;20.60;57.80;;;;;;4978435;28;20042;-14
2022/04/24 03:21:06;;;;;;;4.38;3.97;;;20.60;57.70;;;;;;4979018;28;20065;-15
2022/04/24 03:23:31;;;;;;;4.45;4.05;;;20.60;57.70;;;;;;4977533;28;20062;-14
2022/04/24 03:25:57;;;;;;;4.35;4.03;;;20.60;57.80;;;;;;4964509;28;20047;-14
2022/04/24 03:28:23;;;;;;;5.68;4.30;;;20.60;57.70;;;;;;4958167;28;20077;-14
2022/04/24 03:30:48;;;;;;;5.13;4.63;;;20.60;57.70;;;;;;4958730;28;20042;-15
2022/04/24 03:33:14;;;;;;;4.40;3.97;;;20.60;57.80;;;;;;4959468;28;20055;-15
2022/04/24 03:35:39;;;;;;;4.38;3.97;;;20.60;57.70;;;;;;4958650;28;20160;-15
2022/04/24 03:38:05;;;;;;;3.95;3.65;;;20.60;57.70;;;;;;4957414;28;20046;-15
2022/04/24 03:40:31;;;;;;;4.25;3.85;;;20.60;57.70;;;;;;4959141;28;20035;-14
2022/04/24 03:42:56;;;;;;;4.38;4.18;;;20.60;57.80;;;;;;4964247;28;20126;-15
2022/04/24 03:45:22;;;;;;;4.50;4.20;;;20.60;58.00;;;;;;4962035;28;20051;-15
2022/04/24 03:47:48;;;;;;;4.50;4.20;;;20.60;57.70;;;;;;4962743;28;20136;-15
2022/04/24 03:50:13;;;;;;;4.82;4.45;;;20.60;57.90;;;;;;4978329;28;20046;-16
2022/04/24 03:52:39;;;;;;;4.57;4.28;;;20.60;57.70;;;;;;4973226;28;20062;-17
2022/04/24 03:55:05;;;;;;;5.07;4.40;;;20.60;57.80;;;;;;4968937;28;20416;-15
2022/04/24 03:57:31;;;;;;;4.63;4.22;;;20.60;57.90;;;;;;4978305;28;20131;-15
2022/04/24 03:59:57;;;;;;;4.18;3.88;;;20.60;58.00;;;;;;4977156;28;20075;-16
2022/04/24 04:02:22;;;;;;;4.57;4.28;;;20.60;57.80;;;;;;4977317;28;20126;-14
2022/04/24 04:04:48;;;;;;;4.53;4.22;;;20.60;57.70;;;;;;4977391;28;20511;-15
2022/04/24 04:07:14;;;;;;;4.25;4.05;;;20.60;57.80;;;;;;4975057;28;20047;-14
2022/04/24 04:09:39;;;;;;;4.38;4.03;;;20.60;57.70;;;;;;4977404;28;20053;-16
2022/04/24 04:12:06;;;;;;;4.90;4.60;;;20.60;57.80;;;;;;4977266;28;20073;-15
2022/04/24 04:14:32;;;;;;;4.30;4.00;;;20.60;57.70;;;;;;4977918;28;20089;-15
2022/04/24 04:16:57;;;;;;;3.80;3.60;;;20.60;57.70;;;;;;4974291;28;20042;-16
2022/04/24 04:19:23;;;;;;;4.47;4.07;;;20.60;57.70;;;;;;4977528;28;20081;-14
2022/04/24 04:21:49;;;;;;;3.85;3.63;;;20.60;57.70;;;;;;4968672;28;20047;-14
2022/04/24 04:24:15;;;;;;;4.20;3.90;;;20.60;57.90;;;;;;4958430;28;20047;-18
2022/04/24 04:26:40;;;;;;;4.65;4.32;;;20.60;57.90;;;;;;4988669;28;20042;-18
2022/04/24 04:29:06;;;;;;;4.40;4.10;;;20.50;57.90;;;;;;4969825;28;20039;-15
2022/04/24 04:31:32;;;;;;;4.38;4.07;;;20.50;57.80;;;;;;4971355;28;20054;-15
2022/04/24 04:33:57;;;;;;;4.28;3.97;;;20.50;57.80;;;;;;4957736;28;20058;-16
2022/04/24 04:36:23;;;;;;;4.10;3.80;;;20.50;57.80;;;;;;4958191;28;20074;-14
2022/04/24 04:38:48;;;;;;;4.30;3.85;;;20.60;57.80;;;;;;4975189;28;20076;-15
2022/04/24 04:41:14;;;;;;;4.50;4.20;;;20.50;57.80;;;;;;4974448;28;20042;-15
2022/04/24 04:43:40;;;;;;;3.85;3.60;;;20.50;57.80;;;;;;4976093;28;20078;-15
2022/04/24 04:46:05;;;;;;;4.60;4.30;;;20.50;57.80;;;;;;4975482;28;20042;-15
2022/04/24 04:48:31;;;;;;;4.63;4.18;;;20.50;57.80;;;;;;4975155;28;20838;-14
2022/04/24 04:50:56;;;;;;;4.03;3.72;;;20.60;57.70;;;;;;4974193;28;20046;-14
2022/04/24 04:53:22;;;;;;;4.38;4.07;;;20.50;57.80;;;;;;4974203;28;20693;-15
2022/04/24 04:55:48;;;;;;;4.43;4.13;;;20.50;57.90;;;;;;4972508;28;20046;-14
2022/04/24 04:58:14;;;;;;;4.07;3.72;;;20.50;57.80;;;;;;4975151;28;20053;-17
2022/04/24 05:00:39;;;;;;;4.75;4.20;;;20.50;57.90;;;;;;4975333;28;20058;-16
2022/04/24 05:03:06;;;;;;;4.53;4.13;;;20.50;57.90;;;;;;4973928;28;20408;-16
2022/04/24 05:05:32;;;;;;;4.18;3.88;;;20.50;57.90;;;;;;4975365;28;20074;-17
2022/04/24 05:07:57;;;;;;;4.32;4.03;;;20.50;57.80;;;;;;4973179;28;20027;-16
2022/04/24 05:10:23;;;;;;;4.22;3.92;;;20.50;57.80;;;;;;4974921;28;20094;-15
2022/04/24 05:12:48;;;;;;;4.85;4.55;;;20.50;57.80;;;;;;4975175;28;20043;-16
2022/04/24 05:15:14;;;;;;;3.92;3.67;;;20.50;57.90;;;;;;4975928;28;20038;-16
2022/04/24 05:17:41;;;;;;;4.72;4.32;;;20.50;57.80;;;;;;4974977;28;20051;-15
2022/04/24 05:20:08;;;;;;;3.97;3.78;;;20.50;57.90;;;;;;4973863;28;20043;-16
2022/04/24 05:22:33;;;;;;;4.50;4.10;;;20.50;58.00;;;;;;4972641;28;20055;-14
2022/04/24 05:24:59;;;;;;;4.25;3.95;;;20.50;57.90;;;;;;4973028;28;20050;-15
2022/04/24 05:27:26;;;;;;;4.18;3.97;;;20.50;57.90;;;;;;4975624;28;20046;-15
2022/04/24 05:29:51;;;;;;;4.07;3.67;;;20.50;58.00;;;;;;4973444;28;20043;-15
2022/04/24 05:32:17;;;;;;;4.53;4.28;;;20.50;57.80;;;;;;4972051;28;20043;-15
2022/04/24 05:34:43;;;;;;;4.18;3.80;;;20.50;57.70;;;;;;4976704;28;20054;-15
2022/04/24 05:37:09;;;;;;;4.47;4.18;;;20.50;57.70;;;;;;4974261;28;20137;-16
2022/04/24 05:39:35;;;;;;;4.00;3.70;;;20.50;57.70;;;;;;4971888;28;20536;-15
2022/04/24 05:42:01;;;;;;;4.30;4.00;;;20.50;57.90;;;;;;4973304;28;20660;-15
2022/04/24 05:44:26;;;;;;;3.92;3.67;;;20.50;57.80;;;;;;4975985;28;20105;-14
2022/04/24 05:46:52;;;;;;;4.22;3.92;;;20.50;57.90;;;;;;4974718;28;20046;-15
2022/04/24 05:49:18;;;;;;;4.55;4.25;;;20.50;58.00;;;;;;4974383;28;20082;-15
2022/04/24 05:51:43;;;;;;;3.85;3.65;;;20.50;58.20;;;;;;4973722;28;20042;-15
2022/04/24 05:54:10;;;;;;;4.32;4.03;;;20.50;58.30;;;;;;4975232;28;20046;-15
2022/04/24 05:56:35;;;;;;;4.55;4.25;;;20.50;58.40;;;;;;4977101;28;20051;-17
2022/04/24 05:59:02;;;;;;;5.47;4.97;;;20.50;58.70;;;;;;4969023;28;20047;-15
2022/04/24 06:01:27;;;;;;;4.88;4.47;;;20.40;58.80;;;;;;4957212;28;20114;-15
2022/04/24 06:03:53;;;;;;;4.18;3.88;;;20.50;58.60;;;;;;4961194;28;20039;-15
2022/04/24 06:06:19;;;;;;;4.15;3.85;;;20.50;58.80;;;;;;4976073;28;20043;-15
2022/04/24 06:08:44;;;;;;;6.85;3.40;;;20.40;58.70;;;;;;4976064;28;20027;-15
2022/04/24 06:11:10;;;;;;;4.18;3.70;;;20.40;58.90;;;;;;4973497;28;20512;-15
2022/04/24 06:13:35;;;;;;;7.07;5.00;;;20.40;59.00;;;;;;4623993;28;10000312;-15
2022/04/24 06:16:01;;;;;;;9.32;5.10;;;20.40;59.00;;;;;;4971902;28;20042;-15
2022/04/24 06:18:27;;;;;;;8.10;4.57;;;20.40;59.10;;;;;;4976247;28;20121;-15
2022/04/24 06:20:53;;;;;;;7.40;5.65;;;20.40;59.00;;;;;;4967508;28;20051;-15
2022/04/24 06:23:18;;;;;;;8.13;6.28;;;20.50;59.00;;;;;;4967151;28;20043;-15
2022/04/24 06:25:44;;;;;;;7.15;6.07;;;20.50;59.10;;;;;;4973050;28;20148;-17
2022/04/24 06:28:10;;;;;;;9.82;6.50;;;20.50;58.90;;;;;;4968981;28;20047;-16
2022/04/24 06:30:40;;;;;;;10.13;6.63;;;20.50;59.00;;;;;;4963172;28;20042;-16
2022/04/24 06:33:14;;;;;;;11.57;6.90;;;20.50;58.90;;;;;;4975261;28;20038;-16
2022/04/24 06:35:41;;;;;;;9.38;6.82;;;20.50;58.90;;;;;;5007190;28;20042;-16
2022/04/24 06:38:07;;;;;;;8.32;6.13;;;20.50;58.80;;;;;;4964768;28;20054;-16
2022/04/24 06:40:33;;;;;;;10.45;6.90;;;20.50;58.80;;;;;;4972449;28;20046;-16
2022/04/24 06:43:05;;;;;;;8.05;6.28;;;20.50;58.90;;;;;;4964875;28;20073;-16
2022/04/24 06:45:41;;;;;;;12.55;6.55;;;20.50;58.80;;;;;;4968672;28;20051;-16
2022/04/24 06:48:11;;;;;;;12.82;7.22;;;20.50;58.80;;;;;;4975302;28;20673;-16
2022/04/24 06:50:41;;;;;;;9.63;6.28;;;20.50;58.70;;;;;;4974995;28;20039;-16
2022/04/24 06:53:08;;;;;;;8.45;6.60;;;20.50;58.80;;;;;;4974390;28;20533;-16
2022/04/24 06:55:41;;;;;;;8.23;6.13;;;20.50;58.70;;;;;;4975488;28;20047;-16
2022/04/24 06:58:08;;;;;;;9.38;6.22;;;20.50;58.70;;;;;;4975455;28;20129;-16
2022/04/24 07:00:36;;;;;;;9.65;6.57;;;20.50;58.70;;;;;;4972769;28;20045;-16
2022/04/24 07:03:18;;;;;;;7.07;6.22;;;20.50;58.60;;;;;;4999210;28;20039;-16
2022/04/24 07:05:44;;;;;;;10.20;6.30;;;20.50;58.60;;;;;;4966026;28;20073;-16
2022/04/24 07:08:09;;;;;;;9.25;6.05;;;20.50;58.70;;;;;;4978473;28;20054;-16
2022/04/24 07:10:35;;;;;;;7.00;6.18;;;20.50;58.60;;;;;;4977840;28;20073;-16
2022/04/24 07:13:01;;;;;;;7.38;6.10;;;20.50;58.80;;;;;;4970926;28;20051;-15
2022/04/24 07:15:35;;;;;;;10.57;6.43;;;20.50;58.50;;;;;;4997805;28;20081;-16
2022/04/24 07:18:01;;;;;;;7.35;6.30;;;20.50;58.50;;;;;;4962853;28;20069;-15
2022/04/24 07:20:29;;;;;;;8.13;6.10;;;20.50;58.50;;;;;;4978331;28;20067;-15
2022/04/24 07:22:57;;;;;;;10.63;6.97;;;20.50;58.60;;;;;;4964736;28;20509;-16
2022/04/24 07:25:25;;;;;;;8.18;6.20;;;20.50;58.60;;;;;;4977115;28;20497;-15
2022/04/24 07:27:51;;;;;;;7.18;5.50;;;20.50;58.80;;;;;;4977406;28;20174;-16
2022/04/24 07:30:17;;;;;;;7.78;5.97;;;20.50;58.70;;;;;;4975528;28;20098;-16
2022/04/24 07:32:45;;;;;;;6.35;5.68;;;20.40;58.60;;;;;;4975448;28;20062;-16
2022/04/24 07:35:18;;;;;;;7.00;5.78;;;20.50;58.50;;;;;;4974788;28;20078;-16
2022/04/24 07:37:44;;;;;;;6.57;5.82;;;20.50;58.60;;;;;;4971339;28;20109;-15
2022/04/24 07:40:11;;;;;;;6.88;5.75;;;20.50;58.70;;;;;;4971911;28;20120;-15
2022/04/24 07:42:56;;;;;;;6.32;5.72;;;20.50;58.80;;;;;;4976327;28;20526;-15
2022/04/24 07:45:22;;;;;;;7.25;5.47;;;20.50;58.90;;;;;;4974130;28;20051;-15
2022/04/24 07:47:48;;;;;;;6.72;5.95;;;20.60;58.80;;;;;;4975111;28;20035;-15
2022/04/24 07:50:14;;;;;;;5.88;5.28;;;20.50;58.90;;;;;;4975016;28;20558;-16
2022/04/24 07:52:40;;;;;;;6.95;6.28;;;20.50;59.00;;;;;;4975585;28;20648;-16
2022/04/24 07:55:06;;;;;;;5.60;5.10;;;20.50;59.10;;;;;;4975456;28;20054;-15
2022/04/24 07:57:32;;;;;;;6.93;5.30;;;20.50;59.20;;;;;;4976373;28;20050;-15
2022/04/24 07:59:58;;;;;;;6.28;5.45;;;20.50;59.10;;;;;;4974423;28;20039;-16
2022/04/24 08:02:23;;;;;;;6.57;5.15;;;20.60;59.00;;;;;;4973954;28;20057;-17
2022/04/24 08:04:49;;;;;;;7.47;5.30;;;20.60;59.20;;;;;;4975829;28;20046;-15
2022/04/24 08:07:15;;;;;;;5.68;4.80;;;20.60;59.40;;;;;;4973260;28;20035;-15
2022/04/24 08:09:42;;;;;;;5.53;5.10;;;20.60;59.30;;;;;;4972718;28;20127;-15
2022/04/24 08:12:08;;;;;;;5.15;4.72;;;20.60;59.30;;;;;;4973306;28;20134;-15
2022/04/24 08:14:33;;;;;;;5.13;4.50;;;20.60;59.10;;;;;;4975261;28;20516;-17
2022/04/24 08:16:59;;;;;;;4.97;4.43;;;20.70;58.90;;;;;;4646654;28;9999750;-15
2022/04/24 08:19:25;;;;;;;5.93;5.35;;;20.60;59.50;;;;;;4969732;28;20039;-16
2022/04/24 08:21:50;;;;;;;6.05;5.35;;;20.60;59.70;;;;;;4967577;28;20035;-15
2022/04/24 08:24:16;;;;;;;7.22;5.25;;;20.60;60.00;;;;;;4971009;28;20051;-16
2022/04/24 08:26:42;;;;;;;6.60;5.60;;;20.60;59.90;;;;;;4969732;28;20035;-15
2022/04/24 08:29:07;;;;;;;6.20;5.70;;;20.60;60.00;;;;;;4967970;28;20051;-16
2022/04/24 08:31:33;;;;;;;6.57;6.03;;;20.70;59.80;;;;;;4971326;28;20061;-15
2022/04/24 08:33:58;;;;;;;6.53;5.93;;;20.60;59.80;;;;;;4969235;28;20039;-15
2022/04/24 08:36:24;;;;;;;8.88;6.57;;;20.70;59.70;;;;;;4970965;28;20061;-16
2022/04/24 08:38:50;;;;;;;8.55;6.25;;;20.60;59.80;;;;;;4968062;28;20031;-15
2022/04/24 08:41:18;;;;;;;9.30;6.80;;;20.70;59.90;;;;;;4971586;28;22822;-15
2022/04/24 08:43:44;;;;;;;8.73;7.32;;;20.70;59.90;;;;;;4970154;28;20047;-16
2022/04/24 08:46:10;;;;;;;7.18;6.30;;;20.70;59.80;;;;;;4966239;28;20050;-15
2022/04/24 08:48:35;;;;;;;6.65;5.95;;;20.60;59.80;;;;;;4952715;28;20059;-15
2022/04/24 08:51:02;;;;;;;8.52;6.88;;;20.70;59.90;;;;;;4965259;28;20042;-15
2022/04/24 08:53:29;;;;;;;7.55;6.75;;;20.70;59.80;;;;;;4970852;28;20042;-15
2022/04/24 08:55:55;;;;;;;7.32;6.43;;;20.70;59.80;;;;;;4971650;28;20105;-15
2022/04/24 08:58:20;;;;;;;10.27;6.75;;;20.70;59.80;;;;;;4971717;28;20039;-15
2022/04/24 09:00:46;;;;;;;7.85;6.47;;;20.70;59.70;;;;;;4971409;28;20047;-15
2022/04/24 09:03:12;;;;;;;6.30;5.70;;;20.70;59.60;;;;;;4970098;28;20035;-15
2022/04/24 09:05:38;;;;;;;8.65;6.80;;;20.80;59.50;;;;;;4969103;28;20043;-15
2022/04/24 09:08:10;;;;;;;6.32;5.82;;;20.80;59.40;;;;;;4971980;28;20069;-15
2022/04/24 09:10:53;;;;;;;8.95;6.07;;;20.80;59.40;;;;;;4972269;28;20050;-15
2022/04/24 09:14:14;;;;;;;8.15;5.57;;;20.80;59.30;;;;;;4970960;28;20043;-15
2022/04/24 09:16:18;;;;;;;6.22;5.63;;;20.90;59.20;;;;;;4970786;28;20051;-16
2022/04/24 09:18:46;;;;;;;6.20;5.65;;;20.90;59.20;;;;;;4972261;28;20105;-15
2022/04/24 09:21:12;;;;;;;7.00;5.55;;;20.90;59.40;;;;;;4972437;28;20046;-15
2022/04/24 09:23:38;;;;;;;6.47;5.50;;;20.90;59.10;;;;;;4964575;28;20061;-16
2022/04/24 09:26:04;;;;;;;7.05;5.43;;;21.00;59.10;;;;;;4965136;28;20058;-15
2022/04/24 09:28:37;;;;;;;5.80;5.07;;;21.00;58.90;;;;;;4958556;28;20042;-15
2022/04/24 09:31:03;;;;;;;8.85;5.15;;;21.00;58.90;;;;;;4965888;28;20447;-16
2022/04/24 09:33:38;;;;;;;6.88;5.75;;;21.00;59.00;;;;;;4961734;28;20134;-15
2022/04/24 09:36:03;;;;;;;6.40;5.40;;;20.90;59.00;;;;;;4967655;28;20047;-15
2022/04/24 09:38:29;;;;;;;5.30;4.80;;;20.90;59.10;;;;;;4963469;28;20101;-15
2022/04/24 09:40:54;;;;;;;9.25;5.57;;;20.90;59.00;;;;;;4967086;28;20051;-16
2022/04/24 09:43:20;;;;;;;5.85;5.25;;;20.90;58.90;;;;;;4975106;28;20058;-15
2022/04/24 09:45:56;;;;;;;7.07;5.93;;;21.00;58.90;;;;;;4975955;28;20460;-15
2022/04/24 09:48:22;;;;;;;7.10;5.20;;;21.00;59.10;;;;;;4956473;28;20038;-16
2022/04/24 09:50:49;;;;;;;6.75;5.53;;;20.90;59.20;;;;;;4973362;28;20043;-15
2022/04/24 09:53:16;;;;;;;6.35;5.53;;;21.00;59.40;;;;;;4974463;28;20038;-15
2022/04/24 09:55:45;;;;;;;6.13;5.40;;;21.00;59.40;;;;;;4974077;28;20468;-16
2022/04/24 09:58:14;;;;;;;6.10;5.50;;;21.00;59.30;;;;;;4970293;28;20043;-16
2022/04/24 10:00:41;;;;;;;6.20;5.70;;;21.00;59.30;;;;;;4965945;28;20066;-16
2022/04/24 10:03:12;;;;;;;6.72;6.13;;;20.90;59.80;;;;;;4974794;28;20043;-16
2022/04/24 10:05:39;;;;;;;7.00;6.25;;;20.90;60.10;;;;;;4969894;28;20043;-15
2022/04/24 10:08:06;;;;;;;7.95;6.45;;;21.00;60.10;;;;;;4987337;28;20038;-15
2022/04/24 10:10:31;;;;;;;7.05;6.35;;;21.00;60.10;;;;;;4975719;28;20100;-15
2022/04/24 10:13:04;;;;;;;7.10;6.47;;;20.80;60.20;;;;;;4975044;28;20211;-15
2022/04/24 10:15:30;;;;;;;7.15;6.00;;;20.80;60.60;;;;;;4968591;28;20043;-15
2022/04/24 10:18:17;;;;;;;9.05;6.63;;;20.80;60.70;;;;;;4968321;28;20046;-16
2022/04/24 10:21:21;;;;;;;7.28;6.57;;;20.90;60.90;;;;;;4965082;28;20171;-16
2022/04/24 10:23:46;;;;;;;11.03;6.40;;;20.80;61.10;;;;;;4964812;28;20087;-15
2022/04/24 10:26:19;;;;;;;8.13;7.20;;;20.80;61.20;;;;;;4964843;28;20039;-16
2022/04/24 10:28:47;;;;;;;10.05;7.57;;;20.70;61.30;;;;;;4990959;28;20046;-15
2022/04/24 10:31:13;;;;;;;9.70;7.68;;;20.70;62.00;;;;;;4965843;28;20041;-15
2022/04/24 10:33:41;;;;;;;8.10;7.28;;;20.70;61.80;;;;;;4964682;28;20134;-15
2022/04/24 10:36:14;;;;;;;7.50;6.80;;;20.70;61.60;;;;;;4968030;28;20102;-15
2022/04/24 10:38:49;;;;;;;10.43;7.15;;;20.70;61.60;;;;;;4972749;28;20047;-17
2022/04/24 10:41:17;;;;;;;7.18;6.53;;;20.60;61.50;;;;;;4967823;28;20404;-15
2022/04/24 10:43:49;;;;;;;8.93;7.78;;;20.60;61.90;;;;;;4973028;28;20047;-15
2022/04/24 10:46:18;;;;;;;8.85;7.00;;;20.60;61.60;;;;;;4972781;28;20051;-15
2022/04/24 10:48:46;;;;;;;9.95;6.93;;;20.60;61.40;;;;;;4986401;28;20129;-15
2022/04/24 10:51:12;;;;;;;10.88;7.07;;;20.70;61.10;;;;;;4978144;28;20050;-15
2022/04/24 10:53:51;;;;;;;8.27;6.60;;;20.80;60.60;;;;;;4962383;28;20051;-15
2022/04/24 10:56:17;;;;;;;7.68;6.25;;;20.90;60.40;;;;;;4957750;28;20064;-15
2022/04/24 10:58:42;;;;;;;6.50;5.82;;;20.90;60.20;;;;;;4972596;28;20049;-15
2022/04/24 11:01:14;;;;;;;8.25;5.88;;;20.90;60.10;;;;;;4970662;28;20039;-16
2022/04/24 11:03:41;;;;;;;8.07;6.18;;;20.90;60.00;;;;;;4974975;28;20085;-15
2022/04/24 11:06:20;;;;;;;6.78;5.75;;;20.90;59.90;;;;;;4967164;28;20046;-15
2022/04/24 11:08:45;;;;;;;5.45;4.95;;;21.00;59.80;;;;;;4967219;28;20172;-15
2022/04/24 11:11:13;;;;;;;6.05;5.45;;;21.00;59.70;;;;;;4977174;28;20042;-15
2022/04/24 11:13:38;;;;;;;6.15;5.18;;;21.10;59.70;;;;;;4963729;28;20043;-16
2022/04/24 11:16:04;;;;;;;6.07;5.15;;;21.10;59.80;;;;;;4964797;28;20114;-19
2022/04/24 11:18:30;;;;;;;5.80;5.30;;;21.10;59.60;;;;;;4961286;28;20157;-17
2022/04/24 11:21:04;;;;;;;9.00;5.90;;;21.10;59.80;;;;;;4994539;28;20042;-19
2022/04/24 11:23:31;;;;;;;10.45;5.03;;;21.20;59.50;;;;;;4613794;28;10000016;-19
2022/04/24 11:25:57;;;;;;;6.32;4.60;;;21.20;59.50;;;;;;4956477;28;20515;-19
2022/04/24 11:28:35;;;;;;;7.28;4.35;;;21.20;59.60;;;;;;4959741;28;20085;-20
2022/04/24 11:31:14;;;;;;;6.82;5.00;;;21.20;59.60;;;;;;4960463;28;20038;-19
2022/04/24 11:33:59;;;;;;;7.55;4.88;;;21.30;59.50;;;;;;4957938;28;20043;-19
2022/04/24 11:36:32;;;;;;;4.85;4.53;;;21.30;59.30;;;;;;4958812;28;20047;-18
2022/04/24 11:38:58;;;;;;;5.40;4.72;;;21.30;59.30;;;;;;4958750;28;20519;-18
2022/04/24 11:41:27;;;;;;;4.97;4.38;;;21.40;59.40;;;;;;4958431;28;20043;-18
2022/04/24 11:43:59;;;;;;;6.40;3.83;;;21.40;59.50;;;;;;4958710;28;20070;-18
2022/04/24 11:51:53;;;;;;;;;;;21.50;59.40;;;;;;4959951;28;20061;-18
2022/04/24 11:54:19;;;;;;;4.65;3.72;;;21.60;59.30;;;;;;4955972;28;19926;-18
2022/04/24 11:56:48;;;;;;;4.63;3.75;;;21.60;59.20;;;;;;4952450;28;20051;-19
2022/04/24 11:59:19;;;;;;;4.45;3.95;;;21.60;59.00;;;;;;4955874;28;20353;-18
2022/04/24 12:01:51;;;;;;;3.70;3.28;;;21.60;59.10;;;;;;4957418;28;20050;-18
2022/04/24 12:04:21;;;;;;;3.95;3.60;;;21.70;59.00;;;;;;4952805;28;20055;-18
2022/04/24 12:06:47;;;;;;;4.75;3.67;;;21.70;59.00;;;;;;4957730;28;20435;-18
2022/04/24 12:09:14;;;;;;;3.40;3.10;;;21.70;59.10;;;;;;4958322;28;20050;-19
2022/04/24 12:11:40;;;;;;;3.97;3.67;;;21.80;58.80;;;;;;4955623;28;22003;-18
2022/04/24 12:14:14;;;;;;;3.53;3.33;;;21.80;58.70;;;;;;4954203;28;20458;-18
2022/04/24 12:16:41;;;;;;;3.80;3.47;;;21.80;58.50;;;;;;4983588;28;20054;-18
2022/04/24 12:19:08;;;;;;;3.35;3.05;;;21.90;58.30;;;;;;4954436;28;20097;-18
2022/04/24 12:21:43;;;;;;;3.78;3.28;;;21.90;58.40;;;;;;4955489;28;20476;-18
2022/04/24 12:24:09;;;;;;;3.65;3.35;;;21.90;58.30;;;;;;4953111;28;20146;-18
2022/04/24 12:26:43;;;;;;;4.07;3.83;;;21.90;58.30;;;;;;4954470;28;20065;-18
2022/04/24 12:29:09;;;;;;;3.72;3.42;;;21.90;58.30;;;;;;4956321;28;20687;-19
2022/04/24 12:31:35;;;;;;;5.35;4.20;;;21.90;58.50;;;;;;4956323;28;20061;-18
2022/04/24 12:34:00;;;;;;;4.72;4.28;;;21.90;58.40;;;;;;4955992;28;20461;-19
2022/04/24 12:36:26;;;;;;;3.63;3.38;;;21.90;58.80;;;;;;4953259;28;20913;-19
2022/04/24 12:38:58;;;;;;;3.75;3.45;;;21.90;58.60;;;;;;4939163;28;20149;-18
2022/04/24 12:41:25;;;;;;;3.58;3.28;;;22.00;58.40;;;;;;4957648;28;20074;-18
2022/04/24 12:43:50;;;;;;;3.97;3.58;;;22.00;58.40;;;;;;4953972;28;20074;-18
2022/04/24 12:46:16;;;;;;;3.33;3.13;;;22.00;58.30;;;;;;4957514;28;20134;-18
2022/04/24 12:48:49;;;;;;;5.10;4.32;;;22.00;58.10;;;;;;4958154;28;20055;-18
2022/04/24 12:51:15;;;;;;;4.18;3.88;;;21.90;58.00;;;;;;4958578;28;20062;-18